Time;durP1;ratioP1;P1;durP2;ratioP2;P2;SDS_P1;SDS_P2;PMS_P1;PMS_P2;Temp;Humidity;BMP_temperature;BMP_pressure;BME280_temperature;BME280_humidity;BME280_pressure;Samples;Min_cycle;Max_cycle;Signal;HPM_P1;HPM_P2
2021/05/16 00:00:21;;;;;;;7.82;7.10;;;11.90;99.90;;;;;;4988852;28;20059;-81
2021/05/16 00:02:47;;;;;;;8.13;7.10;;;12.00;99.90;;;;;;4991370;28;20042;-81
2021/05/16 00:05:14;;;;;;;7.88;7.07;;;11.80;99.90;;;;;;4990796;28;20050;-81
2021/05/16 00:07:41;;;;;;;8.95;8.07;;;11.80;99.90;;;;;;4991221;28;20054;-80
2021/05/16 00:10:08;;;;;;;9.35;7.60;;;11.80;99.90;;;;;;4990813;28;20454;-82
2021/05/16 00:12:35;;;;;;;8.68;7.88;;;11.70;99.90;;;;;;4990926;28;20046;-82
2021/05/16 00:15:01;;;;;;;8.85;7.93;;;11.70;99.90;;;;;;4990335;28;20051;-82
2021/05/16 00:17:27;;;;;;;8.90;8.00;;;11.60;99.90;;;;;;5001018;28;20134;-81
2021/05/16 00:19:53;;;;;;;8.77;7.90;;;11.60;99.90;;;;;;4998268;28;20058;-81
2021/05/16 00:22:19;;;;;;;8.77;7.88;;;11.60;99.90;;;;;;4995599;28;20042;-81
2021/05/16 00:24:45;;;;;;;10.25;8.98;;;11.60;99.90;;;;;;4996972;28;20050;-82
2021/05/16 00:27:11;;;;;;;9.38;8.38;;;11.50;99.90;;;;;;4990206;28;20051;-82
2021/05/16 00:29:37;;;;;;;9.40;8.15;;;11.60;99.90;;;;;;4990516;28;20053;-82
2021/05/16 00:32:04;;;;;;;8.88;8.07;;;11.60;99.90;;;;;;4990616;28;20070;-82
2021/05/16 00:34:30;;;;;;;9.73;8.35;;;11.50;99.90;;;;;;4990435;28;20081;-84
2021/05/16 00:36:56;;;;;;;9.05;7.95;;;11.60;99.90;;;;;;4990633;28;20043;-82
2021/05/16 00:39:22;;;;;;;9.30;8.30;;;11.60;99.90;;;;;;4990716;28;20110;-82
2021/05/16 00:41:48;;;;;;;9.02;8.15;;;11.60;99.90;;;;;;4990694;28;20054;-82
2021/05/16 00:44:17;;;;;;;8.63;7.82;;;11.50;99.90;;;;;;4990298;28;20042;-83
2021/05/16 00:46:43;;;;;;;8.80;7.90;;;11.40;99.90;;;;;;5002476;28;20054;-82
2021/05/16 00:49:10;;;;;;;10.10;9.20;;;11.40;99.90;;;;;;5001086;28;20047;-82
2021/05/16 00:51:37;;;;;;;9.50;8.52;;;11.30;99.90;;;;;;4989736;28;20056;-82
2021/05/16 00:54:06;;;;;;;10.02;8.80;;;11.40;99.90;;;;;;4990063;28;20093;-82
2021/05/16 00:56:32;;;;;;;9.27;8.33;;;11.40;99.90;;;;;;4990447;28;20499;-82
2021/05/16 00:58:59;;;;;;;9.45;8.52;;;11.50;99.90;;;;;;4990216;28;20085;-82
2021/05/16 01:01:26;;;;;;;9.20;8.40;;;11.50;99.90;;;;;;4989741;28;20062;-82
2021/05/16 01:03:53;;;;;;;10.45;9.45;;;11.50;99.90;;;;;;4989887;28;20045;-82
2021/05/16 01:06:19;;;;;;;10.65;9.55;;;11.60;99.90;;;;;;4990409;28;20051;-81
2021/05/16 01:08:49;;;;;;;11.25;9.82;;;11.60;99.90;;;;;;4989942;28;20118;-82
2021/05/16 01:11:16;;;;;;;11.30;10.20;;;11.60;99.90;;;;;;4989377;28;20055;-81
2021/05/16 01:13:46;;;;;;;10.18;9.13;;;11.60;99.90;;;;;;4989691;28;20077;-81
2021/05/16 01:16:12;;;;;;;10.43;9.43;;;11.70;99.90;;;;;;4990080;28;20051;-81
2021/05/16 01:18:38;;;;;;;12.00;10.80;;;11.70;99.90;;;;;;4990542;28;20042;-82
2021/05/16 01:21:04;;;;;;;11.38;10.25;;;11.80;99.90;;;;;;4989865;28;20057;-82
2021/05/16 01:23:44;;;;;;;11.68;10.57;;;11.80;99.90;;;;;;5002772;28;20046;-82
2021/05/16 01:26:10;;;;;;;11.80;10.60;;;11.80;99.90;;;;;;4989702;28;20050;-82
2021/05/16 01:28:36;;;;;;;12.48;11.18;;;11.70;99.90;;;;;;4972206;28;20518;-82
2021/05/16 01:31:03;;;;;;;12.30;11.10;;;11.50;99.90;;;;;;4989369;28;20083;-82
2021/05/16 01:33:29;;;;;;;12.32;10.70;;;11.50;99.90;;;;;;4989272;28;20066;-82
2021/05/16 01:36:02;;;;;;;12.30;11.10;;;11.50;99.90;;;;;;4989565;28;20082;-82
2021/05/16 01:38:27;;;;;;;11.75;10.65;;;11.50;99.90;;;;;;4989380;28;20117;-82
2021/05/16 01:40:53;;;;;;;12.35;11.15;;;11.40;99.90;;;;;;4989017;28;20450;-82
2021/05/16 01:43:19;;;;;;;13.27;11.95;;;11.30;99.90;;;;;;4989360;28;20042;-82
2021/05/16 01:45:45;;;;;;;12.38;11.02;;;11.20;99.90;;;;;;4995755;28;20067;-82
2021/05/16 01:48:11;;;;;;;13.15;11.75;;;11.20;99.90;;;;;;4986839;28;20051;-81
2021/05/16 01:50:39;;;;;;;12.00;10.70;;;11.20;99.90;;;;;;4989035;28;20047;-83
2021/05/16 01:53:06;;;;;;;12.13;10.82;;;11.30;99.90;;;;;;4989026;28;20051;-82
2021/05/16 01:55:33;;;;;;;13.48;12.10;;;11.40;99.90;;;;;;4989355;28;20057;-82
2021/05/16 01:58:00;;;;;;;13.00;11.70;;;11.30;99.90;;;;;;4988848;28;20042;-82
2021/05/16 02:00:27;;;;;;;12.57;11.38;;;11.40;99.90;;;;;;4989784;28;20050;-83
2021/05/16 02:02:54;;;;;;;13.38;11.98;;;11.50;99.90;;;;;;4989379;28;20047;-82
2021/05/16 02:05:20;;;;;;;13.02;11.68;;;11.50;99.90;;;;;;4988315;28;20051;-82
2021/05/16 02:07:48;;;;;;;12.85;11.40;;;11.60;99.90;;;;;;4988539;28;20070;-82
2021/05/16 02:10:15;;;;;;;14.30;12.60;;;11.70;99.90;;;;;;4988439;28;20050;-82
2021/05/16 02:12:41;;;;;;;13.32;12.02;;;11.60;99.90;;;;;;4988228;28;20102;-81
2021/05/16 02:15:10;;;;;;;13.27;11.80;;;11.60;99.90;;;;;;4988226;28;20065;-82
2021/05/16 02:17:39;;;;;;;13.02;11.73;;;11.50;99.90;;;;;;4988448;28;20058;-81
2021/05/16 02:20:19;;;;;;;13.25;11.85;;;11.60;99.90;;;;;;4988432;28;20074;-80
2021/05/16 02:22:45;;;;;;;13.63;12.23;;;11.50;99.90;;;;;;4975430;28;20047;-81
2021/05/16 02:25:12;;;;;;;13.27;11.90;;;11.50;99.90;;;;;;4988517;28;20054;-81
2021/05/16 02:27:38;;;;;;;13.60;12.20;;;11.50;99.90;;;;;;4988814;28;20050;-82
2021/05/16 02:30:06;;;;;;;12.95;11.73;;;11.50;99.90;;;;;;4988318;28;20493;-81
2021/05/16 02:32:32;;;;;;;13.73;12.43;;;11.50;99.90;;;;;;4988546;28;20070;-82
2021/05/16 02:34:58;;;;;;;12.75;11.52;;;11.50;99.90;;;;;;4988242;28;20047;-82
2021/05/16 02:37:24;;;;;;;11.90;10.70;;;11.50;99.90;;;;;;4988126;28;20057;-81
2021/05/16 02:39:50;;;;;;;12.55;11.25;;;11.50;99.90;;;;;;4988336;28;20047;-81
2021/05/16 02:42:16;;;;;;;12.55;11.25;;;11.40;99.90;;;;;;4987645;28;20045;-81
2021/05/16 02:44:41;;;;;;;12.50;11.18;;;11.40;99.90;;;;;;4987924;28;20105;-81
2021/05/16 02:47:07;;;;;;;12.77;11.57;;;11.40;99.90;;;;;;4992260;28;20049;-81
2021/05/16 02:49:33;;;;;;;13.02;11.73;;;11.40;99.90;;;;;;4997978;28;20050;-82
2021/05/16 02:51:59;;;;;;;13.00;11.70;;;11.50;99.90;;;;;;4988393;28;20058;-81
2021/05/16 02:54:25;;;;;;;13.27;11.98;;;11.50;99.90;;;;;;4988194;28;20574;-82
2021/05/16 02:56:51;;;;;;;12.90;11.70;;;11.60;99.90;;;;;;4988044;28;20046;-81
2021/05/16 02:59:17;;;;;;;13.15;11.90;;;11.60;99.90;;;;;;4988077;28;20054;-80
2021/05/16 03:01:43;;;;;;;13.88;12.40;;;11.40;99.90;;;;;;4988178;28;20479;-81
2021/05/16 03:04:09;;;;;;;14.10;12.70;;;11.40;99.90;;;;;;4987552;28;20047;-80
2021/05/16 03:06:34;;;;;;;14.40;12.90;;;11.60;99.90;;;;;;4988766;28;20047;-81
2021/05/16 03:09:00;;;;;;;15.05;12.50;;;11.50;99.90;;;;;;4999421;28;20495;-82
2021/05/16 03:11:26;;;;;;;13.98;12.57;;;11.70;99.90;;;;;;4987850;28;20054;-80
2021/05/16 03:13:52;;;;;;;15.25;13.65;;;11.80;99.90;;;;;;4987512;28;20061;-81
2021/05/16 03:16:18;;;;;;;15.63;13.82;;;11.70;99.90;;;;;;4987656;28;20059;-81
2021/05/16 03:18:44;;;;;;;19.15;15.23;;;11.40;99.90;;;;;;5000170;28;20051;-81
2021/05/16 03:21:10;;;;;;;17.75;15.13;;;11.40;99.90;;;;;;4987274;28;20043;-81
2021/05/16 03:23:35;;;;;;;18.88;16.08;;;11.30;99.90;;;;;;4987198;28;20046;-81
2021/05/16 03:26:02;;;;;;;18.20;16.27;;;11.00;99.90;;;;;;4986776;28;20047;-81
2021/05/16 03:28:31;;;;;;;19.00;15.63;;;11.00;99.90;;;;;;5000951;28;20047;-81
2021/05/16 03:30:57;;;;;;;19.33;16.55;;;11.10;99.90;;;;;;4987115;28;20050;-82
2021/05/16 03:33:24;;;;;;;20.17;16.50;;;11.10;99.90;;;;;;4986968;28;20059;-82
2021/05/16 03:35:50;;;;;;;20.02;17.75;;;11.10;99.90;;;;;;4986958;28;20047;-81
2021/05/16 03:38:16;;;;;;;20.17;17.02;;;11.00;99.90;;;;;;4992459;28;20039;-81
2021/05/16 03:40:42;;;;;;;26.50;18.98;;;11.00;99.90;;;;;;4995205;28;20062;-81
2021/05/16 03:43:08;;;;;;;21.98;17.88;;;10.80;99.90;;;;;;4987096;28;20054;-82
2021/05/16 03:45:34;;;;;;;22.80;18.15;;;10.80;99.90;;;;;;4992080;28;20062;-81
2021/05/16 03:48:01;;;;;;;22.60;18.02;;;10.90;99.90;;;;;;4995104;28;20043;-81
2021/05/16 03:50:27;;;;;;;26.33;19.63;;;10.90;99.90;;;;;;4987453;28;20054;-80
2021/05/16 03:52:53;;;;;;;25.00;18.90;;;10.80;99.90;;;;;;4987016;28;20082;-83
2021/05/16 03:55:20;;;;;;;23.67;19.42;;;10.90;99.90;;;;;;4986706;28;20043;-81
2021/05/16 03:57:49;;;;;;;28.45;19.20;;;10.80;99.90;;;;;;4986579;28;20047;-81
2021/05/16 04:00:16;;;;;;;25.35;18.77;;;10.80;99.90;;;;;;4986719;28;20043;-80
2021/05/16 04:02:42;;;;;;;24.35;19.70;;;10.80;99.90;;;;;;4986989;28;20046;-81
2021/05/16 04:05:09;;;;;;;26.70;18.05;;;10.80;99.90;;;;;;4987431;28;20047;-81
2021/05/16 04:07:34;;;;;;;25.90;19.27;;;10.80;99.90;;;;;;4986693;28;20046;-81
2021/05/16 04:10:00;;;;;;;27.42;19.98;;;10.80;99.90;;;;;;4986766;28;20121;-81
2021/05/16 04:12:27;;;;;;;30.80;21.20;;;10.80;99.90;;;;;;4986856;28;20050;-81
2021/05/16 04:14:53;;;;;;;28.30;19.73;;;10.70;99.90;;;;;;4968838;28;20055;-82
2021/05/16 04:17:19;;;;;;;31.58;18.90;;;10.60;99.90;;;;;;4986475;28;20038;-81
2021/05/16 04:19:45;;;;;;;24.98;18.67;;;10.60;99.90;;;;;;4969503;28;20110;-81
2021/05/16 04:22:12;;;;;;;27.75;19.02;;;10.70;99.90;;;;;;4986612;28;20062;-87
2021/05/16 04:24:38;;;;;;;31.80;19.67;;;10.70;99.90;;;;;;4970188;28;20047;-81
2021/05/16 04:27:04;;;;;;;28.60;18.15;;;10.60;99.90;;;;;;4987491;28;20054;-82
2021/05/16 04:29:30;;;;;;;27.33;19.90;;;10.70;99.90;;;;;;4986835;28;20418;-81
2021/05/16 04:31:56;;;;;;;30.17;20.63;;;10.70;99.90;;;;;;4986638;28;20047;-80
2021/05/16 04:34:22;;;;;;;32.05;19.60;;;10.70;99.90;;;;;;4987056;28;20047;-82
2021/05/16 04:36:48;;;;;;;29.45;19.17;;;10.70;99.90;;;;;;4987263;28;20051;-81
2021/05/16 04:39:14;;;;;;;28.10;19.25;;;10.70;99.90;;;;;;4986149;28;20051;-81
2021/05/16 04:41:40;;;;;;;28.27;18.80;;;10.80;99.90;;;;;;4986569;28;20043;-81
2021/05/16 04:44:07;;;;;;;33.65;20.65;;;10.70;99.90;;;;;;4987179;28;20045;-81
2021/05/16 04:46:33;;;;;;;27.70;19.10;;;10.80;99.90;;;;;;4988964;28;20133;-82
2021/05/16 04:48:59;;;;;;;30.08;20.05;;;10.80;99.90;;;;;;5002134;28;20062;-79
2021/05/16 04:51:25;;;;;;;31.25;19.30;;;10.80;99.90;;;;;;4990124;28;20062;-80
2021/05/16 04:53:52;;;;;;;34.00;21.25;;;10.90;99.90;;;;;;4990186;28;20053;-80
2021/05/16 04:56:19;;;;;;;32.25;21.60;;;10.80;99.90;;;;;;4990241;28;20058;-81
2021/05/16 04:58:45;;;;;;;33.03;20.80;;;10.70;99.90;;;;;;4990342;28;20059;-81
2021/05/16 05:01:12;;;;;;;30.20;20.17;;;10.60;99.90;;;;;;4990061;28;20570;-81
2021/05/16 05:03:38;;;;;;;34.17;20.33;;;10.70;99.90;;;;;;4990033;28;20047;-81
2021/05/16 05:06:04;;;;;;;36.38;21.50;;;10.70;99.90;;;;;;4989997;28;20058;-81
2021/05/16 05:08:30;;;;;;;34.97;20.45;;;10.70;99.90;;;;;;4989491;28;20043;-80
2021/05/16 05:10:56;;;;;;;41.65;22.60;;;10.80;99.90;;;;;;4989633;28;20507;-80
2021/05/16 05:13:22;;;;;;;31.85;21.77;;;10.70;99.90;;;;;;4989762;28;20109;-80
2021/05/16 05:15:48;;;;;;;35.83;22.15;;;10.70;99.90;;;;;;4989149;28;20070;-80
2021/05/16 05:18:16;;;;;;;39.88;22.02;;;10.70;99.90;;;;;;4993473;28;20050;-81
2021/05/16 05:20:42;;;;;;;34.95;22.58;;;10.80;99.90;;;;;;4980599;28;20093;-78
2021/05/16 05:23:08;;;;;;;34.22;21.35;;;10.80;99.90;;;;;;4989726;28;20454;-80
2021/05/16 05:25:34;;;;;;;37.42;21.73;;;10.90;99.90;;;;;;4988490;28;20050;-81
2021/05/16 05:28:00;;;;;;;35.33;22.00;;;11.00;99.90;;;;;;4989262;28;20047;-80
2021/05/16 05:30:26;;;;;;;36.80;21.33;;;11.00;99.90;;;;;;4989707;28;20054;-81
2021/05/16 05:32:52;;;;;;;30.73;20.25;;;11.00;99.90;;;;;;4989411;28;20458;-84
2021/05/16 05:35:19;;;;;;;31.27;20.77;;;11.10;99.90;;;;;;4988917;28;20122;-80
2021/05/16 05:37:45;;;;;;;32.97;21.15;;;11.30;99.90;;;;;;4989124;28;20062;-80
2021/05/16 05:40:12;;;;;;;32.92;20.45;;;11.20;99.90;;;;;;4989431;28;20050;-80
2021/05/16 05:42:39;;;;;;;32.70;19.67;;;11.20;99.90;;;;;;4989375;28;20061;-80
2021/05/16 05:45:06;;;;;;;30.25;19.98;;;11.20;99.90;;;;;;4989860;28;20126;-80
2021/05/16 05:47:32;;;;;;;31.85;20.02;;;11.30;99.90;;;;;;5003969;28;20046;-80
2021/05/16 05:49:59;;;;;;;29.73;20.60;;;11.30;99.90;;;;;;4990985;28;20039;-80
2021/05/16 05:52:25;;;;;;;28.45;20.67;;;11.30;99.90;;;;;;4988640;28;20054;-80
2021/05/16 05:54:51;;;;;;;28.83;18.75;;;11.20;99.90;;;;;;4988896;28;20112;-80
2021/05/16 05:57:17;;;;;;;23.65;18.73;;;11.20;99.90;;;;;;4987811;28;20051;-79
2021/05/16 05:59:43;;;;;;;26.02;18.70;;;11.30;99.90;;;;;;4989299;28;20050;-80
2021/05/16 06:02:09;;;;;;;24.13;18.08;;;11.30;99.90;;;;;;4989193;28;20070;-79
2021/05/16 06:04:35;;;;;;;27.80;19.45;;;11.50;99.90;;;;;;4988566;28;20042;-80
2021/05/16 06:07:01;;;;;;;28.55;18.05;;;11.50;99.90;;;;;;4988908;28;20054;-80
2021/05/16 06:09:28;;;;;;;27.70;20.27;;;11.60;99.90;;;;;;4989098;28;20053;-79
2021/05/16 06:11:58;;;;;;;27.73;19.60;;;11.60;99.90;;;;;;4988858;28;20047;-79
2021/05/16 06:14:24;;;;;;;27.48;19.75;;;11.70;99.90;;;;;;4989170;28;20058;-81
2021/05/16 06:16:50;;;;;;;29.25;18.38;;;11.70;99.90;;;;;;4988755;28;20074;-81
2021/05/16 06:19:16;;;;;;;31.90;19.73;;;11.80;99.90;;;;;;4988464;28;20051;-80
2021/05/16 06:21:43;;;;;;;32.58;21.10;;;11.80;99.90;;;;;;4988712;28;20079;-81
2021/05/16 06:24:10;;;;;;;27.17;20.00;;;11.80;99.90;;;;;;4989251;28;20039;-81
2021/05/16 06:26:42;;;;;;;28.88;19.60;;;11.80;99.90;;;;;;4988262;28;20137;-81
2021/05/16 06:29:10;;;;;;;30.63;20.23;;;11.90;99.90;;;;;;4988043;28;20050;-80
2021/05/16 06:31:36;;;;;;;29.98;19.88;;;11.90;99.90;;;;;;4988601;28;20049;-80
2021/05/16 06:34:03;;;;;;;26.52;19.33;;;11.80;99.90;;;;;;4985960;28;20043;-81
2021/05/16 06:36:30;;;;;;;28.13;19.33;;;12.00;99.90;;;;;;4975701;28;20050;-81
2021/05/16 06:38:56;;;;;;;26.50;19.55;;;11.90;99.90;;;;;;4983128;28;20051;-81
2021/05/16 06:41:23;;;;;;;28.70;18.10;;;11.90;99.90;;;;;;4982438;28;20046;-81
2021/05/16 06:43:51;;;;;;;27.40;18.33;;;12.10;99.90;;;;;;4977090;28;20484;-81
2021/05/16 06:46:17;;;;;;;26.98;17.50;;;12.00;99.90;;;;;;4977787;28;20054;-81
2021/05/16 06:48:43;;;;;;;23.23;17.25;;;12.20;99.90;;;;;;4977825;28;20039;-82
2021/05/16 06:51:11;;;;;;;24.75;18.63;;;12.20;99.90;;;;;;4976528;28;20186;-80
2021/05/16 06:53:37;;;;;;;26.13;17.75;;;12.20;99.90;;;;;;4975786;28;20577;-81
2021/05/16 06:56:04;;;;;;;23.23;17.70;;;12.20;99.90;;;;;;4978636;28;20047;-84
2021/05/16 06:58:30;;;;;;;26.35;18.40;;;12.10;99.90;;;;;;4974385;28;20047;-81
2021/05/16 07:00:56;;;;;;;29.02;17.25;;;12.10;99.90;;;;;;4986735;28;20502;-81
2021/05/16 07:03:22;;;;;;;25.52;17.63;;;12.00;99.90;;;;;;4987940;28;20066;-81
2021/05/16 07:05:47;;;;;;;27.73;18.40;;;12.10;99.90;;;;;;4998914;28;20073;-81
2021/05/16 07:08:13;;;;;;;24.98;16.15;;;12.20;99.90;;;;;;4994415;28;20046;-81
2021/05/16 07:10:39;;;;;;;26.23;15.43;;;12.20;99.90;;;;;;5004673;28;20114;-80
2021/05/16 07:13:05;;;;;;;21.60;13.80;;;12.30;99.90;;;;;;4999192;28;20047;-81
2021/05/16 07:15:31;;;;;;;23.48;14.70;;;12.10;99.90;;;;;;4981569;28;20074;-80
2021/05/16 07:17:57;;;;;;;21.58;14.93;;;12.10;99.90;;;;;;4966089;28;20047;-73
2021/05/16 07:20:23;;;;;;;23.08;14.63;;;11.90;99.90;;;;;;4986711;28;20053;-72
2021/05/16 07:22:49;;;;;;;31.88;16.85;;;12.10;99.90;;;;;;4985331;28;20554;-75
2021/05/16 07:25:17;;;;;;;24.95;16.17;;;12.10;99.90;;;;;;4985025;28;20043;-75
2021/05/16 07:27:44;;;;;;;29.75;16.17;;;12.00;99.90;;;;;;4984736;28;20614;-75
2021/05/16 07:30:11;;;;;;;25.33;15.75;;;12.10;99.90;;;;;;4987566;28;20069;-73
2021/05/16 07:32:37;;;;;;;22.13;12.35;;;12.20;99.90;;;;;;4977502;28;20078;-76
2021/05/16 07:35:04;;;;;;;20.63;14.30;;;12.60;99.90;;;;;;4971798;28;20043;-76
2021/05/16 07:37:34;;;;;;;24.23;13.70;;;12.70;99.90;;;;;;4967397;28;20134;-74
2021/05/16 07:40:00;;;;;;;22.25;13.98;;;12.60;99.90;;;;;;4966383;28;20047;-74
2021/05/16 07:42:26;;;;;;;24.02;14.40;;;12.50;99.90;;;;;;4968782;28;20047;-73
2021/05/16 07:44:52;;;;;;;27.88;14.00;;;12.50;99.90;;;;;;4973647;28;20039;-73
2021/05/16 07:47:18;;;;;;;24.92;15.02;;;12.50;99.90;;;;;;4968989;28;20043;-71
2021/05/16 07:49:47;;;;;;;19.63;12.98;;;12.50;99.90;;;;;;4972001;28;20058;-75
2021/05/16 07:52:15;;;;;;;22.95;11.80;;;12.60;99.90;;;;;;4968393;28;20047;-76
2021/05/16 07:54:42;;;;;;;21.25;12.35;;;12.70;99.90;;;;;;4966521;28;20063;-75
2021/05/16 07:57:08;;;;;;;21.67;12.25;;;12.80;99.90;;;;;;4969889;28;20080;-79
2021/05/16 07:59:36;;;;;;;24.63;12.65;;;12.70;99.90;;;;;;4985150;28;20051;-79
2021/05/16 08:02:03;;;;;;;19.90;11.80;;;12.90;99.90;;;;;;4984759;28;20038;-79
2021/05/16 08:04:29;;;;;;;15.35;9.68;;;12.60;99.90;;;;;;4985594;28;20051;-78
2021/05/16 08:06:56;;;;;;;20.58;10.75;;;12.50;99.90;;;;;;4986687;28;20054;-79
2021/05/16 08:09:23;;;;;;;19.90;10.63;;;12.50;99.90;;;;;;4985603;28;20038;-78
2021/05/16 08:11:50;;;;;;;19.00;10.02;;;12.50;99.90;;;;;;4968065;28;20047;-79
2021/05/16 08:14:16;;;;;;;22.25;10.82;;;12.40;99.90;;;;;;4983389;28;20051;-78
2021/05/16 08:16:42;;;;;;;20.10;9.15;;;12.70;99.90;;;;;;4974736;28;20098;-76
2021/05/16 08:19:09;;;;;;;13.93;7.60;;;12.80;99.90;;;;;;4974801;28;20055;-76
2021/05/16 08:21:36;;;;;;;17.95;8.30;;;12.80;99.90;;;;;;4987656;28;20138;-76
2021/05/16 08:24:04;;;;;;;15.27;7.38;;;12.80;99.90;;;;;;4989041;28;20043;-77
2021/05/16 08:26:31;;;;;;;10.63;5.68;;;12.70;99.90;;;;;;4960932;28;20051;-84
2021/05/16 08:28:57;;;;;;;12.15;7.00;;;12.90;99.90;;;;;;4965215;28;20094;-76
2021/05/16 08:31:22;;;;;;;9.70;6.07;;;12.60;99.90;;;;;;4986460;28;20070;-85
2021/05/16 08:33:49;;;;;;;11.13;6.85;;;12.60;99.90;;;;;;4965452;28;20055;-86
2021/05/16 08:36:15;;;;;;;14.00;8.27;;;12.60;99.90;;;;;;4977234;28;20312;-84
2021/05/16 08:38:41;;;;;;;16.00;7.63;;;12.70;99.90;;;;;;4983091;28;20054;-84
2021/05/16 08:41:10;;;;;;;15.30;7.45;;;12.80;99.90;;;;;;4971791;28;20081;-84
2021/05/16 08:43:36;;;;;;;19.63;8.07;;;12.60;99.90;;;;;;4982653;28;20419;-84
2021/05/16 08:46:02;;;;;;;15.20;8.85;;;12.80;99.90;;;;;;4972038;28;20074;-80
2021/05/16 08:48:30;;;;;;;17.02;8.63;;;13.00;99.90;;;;;;4968102;28;20064;-83
2021/05/16 08:50:57;;;;;;;18.25;8.43;;;13.10;99.90;;;;;;4974672;28;20543;-84
2021/05/16 08:53:22;;;;;;;19.40;9.98;;;13.40;99.90;;;;;;4985476;28;20054;-85
2021/05/16 08:55:49;;;;;;;17.75;8.55;;;13.40;99.90;;;;;;4958455;28;20050;-84
2021/05/16 08:58:14;;;;;;;16.88;8.98;;;13.40;99.90;;;;;;4976443;28;20186;-83
2021/05/16 09:00:45;;;;;;;15.82;8.50;;;13.60;99.90;;;;;;4961186;28;20062;-85
2021/05/16 09:03:16;;;;;;;14.90;8.20;;;13.80;99.90;;;;;;4970398;28;20042;-85
2021/05/16 09:05:51;;;;;;;15.13;7.25;;;13.80;99.90;;;;;;4972872;28;20074;-84
2021/05/16 09:08:21;;;;;;;25.98;9.98;;;13.60;99.90;;;;;;4980047;28;20042;-83
2021/05/16 09:10:57;;;;;;;14.93;5.43;;;13.20;99.90;;;;;;4971274;28;20047;-78
2021/05/16 09:13:34;;;;;;;13.93;3.55;;;12.10;99.90;;;;;;4979655;28;20050;-76
2021/05/16 09:16:15;;;;;;;13.43;3.47;;;10.90;99.90;;;;;;4970795;28;20122;-76
2021/05/16 09:18:52;;;;;;;7.45;2.63;;;10.50;99.90;;;;;;4954245;28;20082;-77
2021/05/16 09:21:29;;;;;;;2.90;1.60;;;10.30;99.90;;;;;;4972197;28;20051;-75
2021/05/16 09:24:06;;;;;;;5.72;1.92;;;10.20;99.90;;;;;;4984218;28;20258;-76
2021/05/16 09:26:38;;;;;;;3.58;1.30;;;10.10;99.90;;;;;;4972970;28;20050;-76
2021/05/16 09:29:24;;;;;;;4.88;1.60;;;10.20;99.90;;;;;;4965404;28;20091;-76
2021/05/16 09:31:51;;;;;;;1.38;1.05;;;10.30;99.90;;;;;;4953749;28;20089;-77
2021/05/16 09:34:17;;;;;;;3.72;1.23;;;10.40;99.90;;;;;;4971737;28;20051;-72
2021/05/16 09:36:46;;;;;;;2.80;1.50;;;10.60;99.90;;;;;;4967835;28;20055;-77
2021/05/16 09:39:14;;;;;;;;;;;10.80;99.90;;;;;;4984621;28;20593;-76
2021/05/16 09:42:12;;;;;;;3.90;2.05;;;10.90;99.90;;;;;;4972033;28;19921;-76
2021/05/16 09:44:48;;;;;;;5.50;3.15;;;11.00;99.90;;;;;;4973346;28;20046;-76
2021/05/16 09:47:27;;;;;;;6.90;3.40;;;11.20;99.90;;;;;;4980039;28;20043;-78
2021/05/16 09:49:53;;;;;;;6.57;3.33;;;11.40;99.90;;;;;;4972793;28;20133;-76
2021/05/16 09:52:24;;;;;;;6.40;3.92;;;11.40;99.90;;;;;;4965620;28;20047;-77
2021/05/16 09:55:00;;;;;;;5.22;3.70;;;11.60;99.90;;;;;;4963255;28;20462;-76
2021/05/16 09:57:29;;;;;;;7.60;4.35;;;11.60;99.90;;;;;;4981497;28;20632;-76
2021/05/16 09:59:55;;;;;;;6.35;4.32;;;11.70;99.90;;;;;;4953515;28;20448;-77
2021/05/16 10:02:25;;;;;;;7.65;4.47;;;11.70;99.90;;;;;;4980216;28;20085;-78
2021/05/16 10:04:53;;;;;;;5.57;3.70;;;12.00;99.90;;;;;;4972751;28;20053;-77
2021/05/16 10:07:23;;;;;;;7.05;4.13;;;12.10;99.90;;;;;;4981553;28;20395;-77
2021/05/16 10:09:53;;;;;;;8.32;4.50;;;12.20;99.90;;;;;;4973076;28;20138;-78
2021/05/16 10:12:19;;;;;;;8.32;4.70;;;12.30;99.90;;;;;;4981338;28;20039;-77
2021/05/16 10:14:56;;;;;;;6.50;4.38;;;12.40;99.90;;;;;;4958951;28;20099;-78
2021/05/16 10:17:22;;;;;;;6.72;3.95;;;12.60;99.90;;;;;;4938893;28;20062;-77
2021/05/16 10:19:49;;;;;;;7.55;3.97;;;12.80;99.90;;;;;;4962362;28;20053;-78
2021/05/16 10:22:16;;;;;;;4.85;3.90;;;12.80;99.90;;;;;;4974098;28;20589;-79
2021/05/16 10:24:50;;;;;;;6.18;3.20;;;13.10;99.90;;;;;;4963226;28;20056;-78
2021/05/16 10:27:27;;;;;;;9.45;4.57;;;13.20;99.90;;;;;;4974346;28;20043;-78
2021/05/16 10:29:57;;;;;;;2.22;1.90;;;13.40;99.90;;;;;;4972269;28;20058;-79
2021/05/16 10:32:30;;;;;;;3.13;2.38;;;13.40;99.90;;;;;;4978345;28;20047;-79
2021/05/16 10:35:01;;;;;;;6.30;2.95;;;13.50;99.90;;;;;;4958577;28;20042;-79
2021/05/16 10:37:53;;;;;;;3.55;2.50;;;13.60;99.90;;;;;;4972378;28;20133;-73
2021/05/16 10:40:28;;;;;;;4.13;2.10;;;13.60;99.90;;;;;;4953198;28;20071;-75
2021/05/16 10:42:59;;;;;;;2.22;1.90;;;13.70;99.90;;;;;;4963317;28;20039;-73
2021/05/16 10:45:37;;;;;;;2.35;1.08;;;13.70;99.90;;;;;;4969546;28;20043;-69
2021/05/16 10:48:16;;;;;;;3.83;1.95;;;13.50;99.90;;;;;;4981393;28;20054;-71
2021/05/16 10:50:49;;;;;;;4.28;1.52;;;13.80;99.90;;;;;;4963238;28;20082;-73
2021/05/16 10:53:36;;;;;;;3.13;1.58;;;13.90;99.90;;;;;;4980827;28;20046;-69
2021/05/16 10:56:08;;;;;;;3.75;1.73;;;13.70;99.90;;;;;;4966846;28;20065;-69
2021/05/16 10:58:40;;;;;;;2.78;1.50;;;13.40;99.90;;;;;;4979457;28;20074;-72
2021/05/16 11:01:11;;;;;;;3.40;1.90;;;13.40;99.90;;;;;;4953047;28;20059;-74
2021/05/16 11:03:50;;;;;;;2.67;1.38;;;13.10;99.90;;;;;;4963313;28;20042;-87
2021/05/16 11:06:31;;;;;;;3.60;1.85;;;13.00;99.90;;;;;;4963880;28;20114;-86
2021/05/16 11:08:57;;;;;;;3.38;1.83;;;12.90;99.90;;;;;;4982707;28;20501;-85
2021/05/16 11:11:33;;;;;;;3.63;2.38;;;13.00;99.90;;;;;;4977985;28;20054;-84
2021/05/16 11:14:19;;;;;;;6.40;2.60;;;12.70;99.90;;;;;;4979011;28;20042;-89
2021/05/16 11:16:46;;;;;;;3.90;2.40;;;12.20;99.90;;;;;;4968800;28;20054;-88
2021/05/16 11:19:12;;;;;;;7.13;1.90;;;11.70;99.90;;;;;;4972567;28;20050;-86
2021/05/16 11:21:38;;;;;;;6.03;1.60;;;11.50;99.90;;;;;;4971036;28;20065;-84
2021/05/16 11:24:05;;;;;;;6.20;1.92;;;11.20;99.90;;;;;;4982002;28;20059;-85
2021/05/16 11:26:30;;;;;;;4.18;1.80;;;11.00;99.90;;;;;;4969390;28;20118;-83
2021/05/16 11:28:57;;;;;;;7.03;2.30;;;11.10;99.90;;;;;;4979676;28;20070;-84
2021/05/16 11:31:26;;;;;;;6.03;2.10;;;10.90;99.90;;;;;;4971150;28;20047;-83
2021/05/16 11:33:55;;;;;;;6.45;2.22;;;10.70;99.90;;;;;;4981808;28;20046;-83
2021/05/16 11:36:32;;;;;;;8.30;2.78;;;10.80;99.90;;;;;;4974239;28;20051;-83
2021/05/16 11:39:01;;;;;;;6.72;2.42;;;10.80;99.90;;;;;;4972494;28;20039;-83
2021/05/16 11:41:31;;;;;;;5.03;2.50;;;10.80;99.90;;;;;;4968362;28;20050;-83
2021/05/16 11:43:59;;;;;;;5.90;2.90;;;10.90;99.90;;;;;;4979604;28;20337;-83
2021/05/16 11:46:38;;;;;;;5.45;2.15;;;11.10;99.90;;;;;;4953636;28;20102;-85
2021/05/16 11:49:05;;;;;;;6.32;2.53;;;11.10;99.90;;;;;;4963085;28;20066;-83
2021/05/16 11:51:32;;;;;;;7.25;3.05;;;11.30;99.90;;;;;;4943687;28;20055;-76
2021/05/16 11:54:12;;;;;;;9.85;2.90;;;11.50;99.90;;;;;;4975265;28;20053;-82
2021/05/16 11:56:42;;;;;;;5.82;2.88;;;11.60;99.90;;;;;;4973758;28;20050;-84
2021/05/16 11:59:09;;;;;;;6.30;2.85;;;11.70;99.90;;;;;;4978613;28;20079;-84
2021/05/16 12:01:36;;;;;;;6.75;2.97;;;11.90;99.90;;;;;;4956815;28;20463;-81
2021/05/16 12:04:16;;;;;;;8.80;3.80;;;12.10;99.90;;;;;;4967772;28;20054;-84
2021/05/16 12:06:47;;;;;;;7.30;2.43;;;12.50;99.90;;;;;;4957445;28;20047;-73
2021/05/16 12:09:16;;;;;;;3.70;2.00;;;12.80;99.90;;;;;;4965390;28;20070;-75
2021/05/16 12:11:45;;;;;;;4.50;1.98;;;12.90;99.90;;;;;;4954703;28;20408;-72
2021/05/16 12:14:14;;;;;;;2.45;1.25;;;12.90;99.90;;;;;;4924204;28;20054;-81
2021/05/16 12:16:49;;;;;;;3.80;1.42;;;13.00;99.90;;;;;;4953044;28;20051;-80
2021/05/16 12:19:22;;;;;;;3.90;1.38;;;13.00;99.90;;;;;;4948518;28;20149;-80
2021/05/16 12:21:56;;;;;;;4.03;1.25;;;13.10;99.90;;;;;;4955500;28;20487;-77
2021/05/16 12:24:23;;;;;;;3.50;1.60;;;13.30;99.90;;;;;;4979453;28;20070;-77
2021/05/16 12:26:50;;;;;;;3.20;1.40;;;13.20;99.90;;;;;;4973365;28;20356;-75
2021/05/16 12:29:18;;;;;;;3.03;1.40;;;13.20;99.90;;;;;;4989158;28;20030;-81
2021/05/16 12:31:45;;;;;;;3.90;1.67;;;13.20;99.90;;;;;;4978817;28;20074;-80
2021/05/16 12:34:14;;;;;;;4.18;1.83;;;13.00;99.90;;;;;;4963885;28;20065;-80
2021/05/16 12:36:59;;;;;;;3.35;1.35;;;13.00;99.90;;;;;;4972466;28;20141;-80
2021/05/16 12:39:46;;;;;;;6.47;1.92;;;13.20;99.90;;;;;;4979052;28;20364;-81